createdAt,value
2023-03-19T00:00:53.621Z,99456.53
2023-03-19T00:02:08.990Z,99459.28
2023-03-19T00:03:24.919Z,99454.94
2023-03-19T00:04:31.623Z,99459.47
2023-03-19T00:05:35.337Z,99462.16
2023-03-19T00:06:39.482Z,99459.63
2023-03-19T00:07:43.716Z,99457.16
2023-03-19T00:08:47.689Z,99459.88
2023-03-19T00:09:51.206Z,99463.44
2023-03-19T00:10:55.273Z,99463.72
2023-03-19T00:11:59.179Z,99471.72
2023-03-19T00:13:02.848Z,99469.16
2023-03-19T00:14:07.164Z,99466.59
2023-03-19T00:15:14.560Z,99464.91
2023-03-19T00:16:18.488Z,99467.63
2023-03-19T00:17:22.346Z,99465.84
2023-03-19T00:18:26.121Z,99466.84
2023-03-19T00:19:29.765Z,99468.63
2023-03-19T00:20:33.347Z,99459.09
2023-03-19T00:21:37.365Z,99465.13
2023-03-19T00:22:41.213Z,99459.84
2023-03-19T00:23:44.896Z,99465.13
2023-03-19T00:24:48.745Z,99467.09
2023-03-19T00:25:54.681Z,99467.97
2023-03-19T00:26:58.387Z,99465.41
2023-03-19T00:28:01.880Z,99466.41
2023-03-19T00:29:09.820Z,99466.41
2023-03-19T00:30:15.082Z,99466.41
2023-03-19T00:31:18.789Z,99469.97
2023-03-19T00:32:22.314Z,99468.28
2023-03-19T00:33:26.776Z,99470.94
2023-03-19T00:34:30.957Z,99473.66
2023-03-19T00:35:35.040Z,99473.75
2023-03-19T00:38:05.339Z,99478.25
2023-03-19T00:39:09.292Z,99475.84
2023-03-19T00:40:15.707Z,99477.56
2023-03-19T00:41:20.869Z,99476.84
2023-03-19T00:42:25.424Z,99477.03
2023-03-19T00:43:29.172Z,99477.97
2023-03-19T00:44:36.101Z,99480.63
2023-03-19T00:45:49.345Z,99473.69
2023-03-19T00:46:53.181Z,99467.72
2023-03-19T00:47:57.882Z,99470.38
2023-03-19T00:49:01.972Z,99471.31
2023-03-19T00:50:11.516Z,99469.59
2023-03-19T00:51:15.851Z,99467.91
2023-03-19T00:52:21.000Z,99465.31
2023-03-19T00:53:24.472Z,99467.19
2023-03-19T00:54:28.702Z,99460.22
2023-03-19T00:55:32.915Z,99467.28
2023-03-19T00:56:38.401Z,99470.94
2023-03-19T00:57:42.026Z,99472.78
2023-03-19T00:58:47.255Z,99466.91
2023-03-19T00:59:50.946Z,99470.41
2023-03-19T01:00:56.379Z,99462.72
2023-03-19T01:02:00.684Z,99460.63
2023-03-19T01:03:06.526Z,99472.13
2023-03-19T01:04:11.484Z,99467.94
2023-03-19T01:05:15.223Z,99464.38
2023-03-19T01:06:18.796Z,99462.66
2023-03-19T01:07:30.906Z,99460.25
2023-03-19T01:08:34.679Z,99461.09
2023-03-19T01:09:38.102Z,99456.00
2023-03-19T01:10:42.408Z,99455.13
2023-03-19T01:11:46.366Z,99456.97
2023-03-19T01:12:50.884Z,99454.44
2023-03-19T01:13:54.405Z,99455.38
2023-03-19T01:14:58.329Z,99455.44
2023-03-19T01:16:02.333Z,99460.72
2023-03-19T01:17:13.496Z,99447.75
2023-03-19T01:18:17.447Z,99449.53
2023-03-19T01:19:21.948Z,99448.78
2023-03-19T01:20:27.677Z,99453.22
2023-03-19T01:21:36.678Z,99455.84
2023-03-19T01:22:51.249Z,99460.34
2023-03-19T01:23:55.976Z,99456.91
2023-03-19T01:24:59.649Z,99451.81
2023-03-19T01:26:04.191Z,99451.94
2023-03-19T01:27:13.193Z,99461.66
2023-03-19T01:28:20.877Z,99455.59
2023-03-19T01:29:24.536Z,99461.81
2023-03-19T01:30:28.382Z,99453.25
2023-03-19T01:31:32.653Z,99457.31
2023-03-19T01:32:36.280Z,99452.03
2023-03-19T01:33:40.294Z,99450.38
2023-03-19T01:34:43.938Z,99447.75
2023-03-19T01:35:51.439Z,99454.75
2023-03-19T01:36:55.352Z,99448.69
2023-03-19T01:37:58.858Z,99451.31
2023-03-19T01:39:03.370Z,99455.59
2023-03-19T01:40:12.562Z,99456.38
2023-03-19T01:41:16.468Z,99458.94
2023-03-19T01:42:21.893Z,99459.88
2023-03-19T01:43:32.746Z,99459.88
2023-03-19T01:44:39.831Z,99452.88
2023-03-19T01:45:59.261Z,99454.59
2023-03-19T01:47:43.027Z,99458.16
2023-03-19T01:48:54.502Z,99454.75
2023-03-19T01:49:59.968Z,99456.59
2023-03-19T01:51:09.559Z,99452.25
2023-03-19T01:52:16.085Z,99447.91
2023-03-19T01:53:28.354Z,99450.63
2023-03-19T01:54:34.216Z,99451.69
2023-03-19T01:55:42.612Z,99448.19
2023-03-19T01:56:53.066Z,99457.22
2023-03-19T01:58:02.708Z,99451.94
2023-03-19T01:59:38.194Z,99453.84
2023-03-19T02:00:49.696Z,99456.00
2023-03-19T02:02:13.638Z,99451.88
2023-03-19T02:03:17.768Z,99459.22
2023-03-19T02:04:34.216Z,99459.09
2023-03-19T02:05:52.950Z,99462.59
2023-03-19T02:07:09.641Z,99459.19
2023-03-19T02:08:21.157Z,99462.13
2023-03-19T02:09:30.756Z,99457.69
2023-03-19T02:10:36.616Z,99458.53
2023-03-19T02:11:42.129Z,99458.53
2023-03-19T02:12:46.620Z,99455.13
2023-03-19T02:13:50.183Z,99452.63
2023-03-19T02:14:54.456Z,99454.19
2023-03-19T02:16:02.707Z,99457.59
2023-03-19T02:17:08.808Z,99449.88
2023-03-19T02:18:13.701Z,99452.13
2023-03-19T02:19:53.025Z,99450.34
2023-03-19T02:21:14.734Z,99452.88
2023-03-19T02:22:23.539Z,99449.34
2023-03-19T02:24:01.926Z,99448.56
2023-03-19T02:25:19.102Z,99447.72
2023-03-19T02:26:28.904Z,99454.94
2023-03-19T02:27:32.997Z,99454.13
2023-03-19T02:28:42.614Z,99459.56
2023-03-19T02:29:48.369Z,99454.22
2023-03-19T02:30:54.186Z,99455.13
2023-03-19T02:31:58.198Z,99455.13
2023-03-19T02:33:01.929Z,99453.50
2023-03-19T02:34:38.546Z,99464.06
2023-03-19T02:35:50.296Z,99458.84
2023-03-19T02:37:08.267Z,99461.53
2023-03-19T02:38:13.615Z,99471.31
2023-03-19T02:39:38.243Z,99468.78
2023-03-19T02:41:09.473Z,99480.53
2023-03-19T02:42:16.543Z,99477.75
2023-03-19T02:43:22.565Z,99481.41
2023-03-19T02:44:27.421Z,99478.03
2023-03-19T02:45:32.285Z,99485.16
2023-03-19T02:46:36.227Z,99475.59
2023-03-19T02:47:41.087Z,99476.53
2023-03-19T02:48:45.104Z,99473.19
2023-03-19T02:49:49.324Z,99482.78
2023-03-19T02:50:56.950Z,99481.09
2023-03-19T02:52:04.165Z,99477.88
2023-03-19T02:53:08.725Z,99469.25
2023-03-19T02:54:12.699Z,99479.66
2023-03-19T02:55:18.475Z,99485.03
2023-03-19T02:56:22.314Z,99477.97
2023-03-19T02:57:26.644Z,99484.00
2023-03-19T02:58:30.424Z,99483.84
2023-03-19T02:59:43.096Z,99481.22
2023-03-19T03:02:53.389Z,99481.53
2023-03-19T03:04:05.364Z,99483.25
2023-03-19T03:05:10.149Z,99481.56
2023-03-19T03:06:14.209Z,99483.34
2023-03-19T03:07:19.341Z,99483.25
2023-03-19T03:08:22.983Z,99476.44
2023-03-19T03:09:27.263Z,99489.53
2023-03-19T03:10:33.604Z,99491.38
2023-03-19T03:11:37.368Z,99487.97
2023-03-19T03:12:40.866Z,99490.72
2023-03-19T03:13:44.789Z,99496.34
2023-03-19T03:14:48.445Z,99491.16
2023-03-19T03:15:53.636Z,99490.22
2023-03-19T03:16:57.674Z,99482.31
2023-03-19T03:18:01.433Z,99489.56
2023-03-19T03:19:06.038Z,99490.38
2023-03-19T03:20:11.592Z,99492.94
2023-03-19T03:21:15.488Z,99494.63
2023-03-19T03:22:19.211Z,99492.00
2023-03-19T03:23:23.060Z,99489.44
2023-03-19T03:24:27.888Z,99494.63
2023-03-19T03:25:31.685Z,99492.94
2023-03-19T03:26:38.758Z,99486.88
2023-03-19T03:27:42.989Z,99485.09
2023-03-19T03:28:46.568Z,99490.38
2023-03-19T03:29:50.814Z,99486.94
2023-03-19T03:31:01.215Z,99487.19
2023-03-19T03:32:04.922Z,99485.44
2023-03-19T03:33:08.629Z,99484.63
2023-03-19T03:34:12.362Z,99486.56
2023-03-19T03:35:21.878Z,99489.19
2023-03-19T03:36:25.811Z,99498.91
2023-03-19T03:37:30.390Z,99491.00
2023-03-19T03:38:34.869Z,99486.66
2023-03-19T03:39:38.552Z,99492.09
2023-03-19T03:40:42.238Z,99487.66
2023-03-19T03:41:46.546Z,99490.44
2023-03-19T03:42:50.303Z,99484.38
2023-03-19T03:43:54.110Z,99488.78
2023-03-19T03:45:00.954Z,99486.06
2023-03-19T03:46:05.279Z,99499.19
2023-03-19T03:47:09.581Z,99489.53
2023-03-19T03:48:14.915Z,99492.16
2023-03-19T03:49:18.603Z,99495.81
2023-03-19T03:50:22.304Z,99494.13
2023-03-19T03:51:26.155Z,99496.59
2023-03-19T03:52:31.512Z,99501.88
2023-03-19T03:53:35.794Z,99502.75
2023-03-19T03:54:40.176Z,99502.78
2023-03-19T03:55:44.212Z,99505.66
2023-03-19T03:56:47.988Z,99502.16
2023-03-19T03:57:52.142Z,99505.69
2023-03-19T03:58:55.840Z,99508.38
2023-03-19T03:59:59.806Z,99507.47
2023-03-19T04:01:04.246Z,99514.47
2023-03-19T04:02:08.850Z,99503.13
2023-03-19T04:03:12.762Z,99506.56
2023-03-19T04:04:16.968Z,99504.91
2023-03-19T04:05:20.605Z,99506.69
2023-03-19T04:06:25.735Z,99509.19
2023-03-19T04:07:29.884Z,99511.88
2023-03-19T04:08:34.109Z,99507.53
2023-03-19T04:09:37.915Z,99505.91
2023-03-19T04:10:43.856Z,99509.38
2023-03-19T04:11:51.287Z,99510.38
2023-03-19T04:12:55.234Z,99509.47
2023-03-19T04:14:01.139Z,99510.38
2023-03-19T04:15:11.104Z,99512.09
2023-03-19T04:16:15.654Z,99511.41
2023-03-19T04:17:19.212Z,99500.88
2023-03-19T04:18:22.903Z,99510.50
2023-03-19T04:19:27.273Z,99513.13
2023-03-19T04:20:31.499Z,99510.50
2023-03-19T04:21:35.441Z,99508.72
2023-03-19T04:22:39.173Z,99499.19
2023-03-19T04:23:42.944Z,99506.16
2023-03-19T04:24:49.470Z,99510.56
2023-03-19T04:25:53.040Z,99510.56
2023-03-19T04:26:56.860Z,99507.84
2023-03-19T04:28:00.498Z,99513.13
2023-03-19T04:29:04.884Z,99507.94
2023-03-19T04:30:11.572Z,99501.75
2023-03-19T04:31:15.589Z,99495.78
2023-03-19T04:32:19.164Z,99500.16
2023-03-19T04:33:23.469Z,99500.16
2023-03-19T04:34:27.192Z,99495.19
2023-03-19T04:35:31.916Z,99500.44
2023-03-19T04:36:35.954Z,99495.28
2023-03-19T04:37:40.088Z,99498.84
2023-03-19T04:38:43.695Z,99504.94
2023-03-19T04:39:47.679Z,99504.09
2023-03-19T04:40:51.958Z,99506.78
2023-03-19T04:41:56.756Z,99495.53
2023-03-19T04:43:00.245Z,99499.91
2023-03-19T04:44:03.855Z,99506.19
2023-03-19T04:45:08.755Z,99497.38
2023-03-19T04:46:12.367Z,99500.94
2023-03-19T04:47:16.081Z,99495.75
2023-03-19T04:48:19.934Z,99495.91
2023-03-19T04:49:24.687Z,99495.06
2023-03-19T04:50:29.350Z,99497.88
2023-03-19T04:51:33.342Z,99503.03
2023-03-19T04:52:39.772Z,99497.16
2023-03-19T04:53:43.667Z,99504.06
2023-03-19T04:54:47.371Z,99501.44
2023-03-19T04:55:51.490Z,99499.63
2023-03-19T04:56:55.207Z,99499.78
2023-03-19T04:57:58.698Z,99499.00
2023-03-19T04:59:02.204Z,99501.56
2023-03-19T05:00:07.030Z,99499.00
2023-03-19T05:01:10.672Z,99507.84
2023-03-19T05:02:14.252Z,99505.38
2023-03-19T05:03:17.888Z,99512.25
2023-03-19T05:04:21.474Z,99513.25
2023-03-19T05:05:25.343Z,99505.47
2023-03-19T05:06:29.090Z,99507.19
2023-03-19T05:07:33.581Z,99506.34
2023-03-19T05:08:37.506Z,99509.84
2023-03-19T05:09:43.354Z,99508.91
2023-03-19T05:10:47.344Z,99505.44
2023-03-19T05:11:51.778Z,99508.91
2023-03-19T05:12:55.839Z,99507.06
2023-03-19T05:13:59.759Z,99506.28
2023-03-19T05:15:05.410Z,99514.09
2023-03-19T05:16:09.648Z,99510.47
2023-03-19T05:17:15.340Z,99501.66
2023-03-19T05:18:19.134Z,99502.53
2023-03-19T05:19:23.392Z,99504.25
2023-03-19T05:20:27.797Z,99505.13
2023-03-19T05:21:31.647Z,99501.63
2023-03-19T05:22:35.395Z,99509.38
2023-03-19T05:23:40.358Z,99512.81
2023-03-19T05:24:44.241Z,99507.44
2023-03-19T05:25:48.738Z,99510.13
2023-03-19T05:26:52.626Z,99503.94
2023-03-19T05:27:56.695Z,99506.50
2023-03-19T05:29:00.603Z,99509.13
2023-03-19T05:30:06.546Z,99504.72
2023-03-19T05:31:11.012Z,99507.19
2023-03-19T05:32:15.993Z,99498.44
2023-03-19T05:33:19.928Z,99499.28
2023-03-19T05:34:23.704Z,99496.66
2023-03-19T05:35:29.615Z,99504.34
2023-03-19T05:36:33.728Z,99498.16
2023-03-19T05:37:37.272Z,99498.97
2023-03-19T05:38:41.343Z,99492.72
2023-03-19T05:39:45.213Z,99499.69
2023-03-19T05:40:48.922Z,99497.84
2023-03-19T05:41:53.207Z,99492.59
2023-03-19T05:42:56.694Z,99495.09
2023-03-19T05:44:00.986Z,99499.44
2023-03-19T05:45:05.797Z,99502.84
2023-03-19T05:46:09.417Z,99498.50
2023-03-19T05:47:13.498Z,99499.28
2023-03-19T05:48:17.666Z,99500.22
2023-03-19T05:49:22.241Z,99499.38
2023-03-19T05:50:25.932Z,99498.44
2023-03-19T05:51:29.537Z,99503.53
2023-03-19T05:52:33.902Z,99499.03
2023-03-19T05:53:38.201Z,99504.13
2023-03-19T05:54:41.804Z,99502.19
2023-03-19T05:55:45.869Z,99502.09
2023-03-19T05:56:49.617Z,99501.16
2023-03-19T05:57:53.936Z,99494.13
2023-03-19T05:58:57.479Z,99499.13
2023-03-19T06:00:01.923Z,99494.38
2023-03-19T06:01:05.718Z,99500.44
2023-03-19T06:02:09.957Z,99497.53
2023-03-19T06:03:14.070Z,99497.59
2023-03-19T06:04:17.821Z,99499.91
2023-03-19T06:05:22.353Z,99503.13
2023-03-19T06:06:27.062Z,99499.41
2023-03-19T06:07:31.586Z,99498.94
2023-03-19T06:08:35.948Z,99502.00
2023-03-19T06:09:41.205Z,99496.34
2023-03-19T06:10:45.633Z,99491.94
2023-03-19T06:11:49.348Z,99486.34
2023-03-19T06:12:53.452Z,99499.59
2023-03-19T06:13:57.249Z,99499.88
2023-03-19T06:15:01.757Z,99496.34
2023-03-19T06:16:06.308Z,99499.25
2023-03-19T06:17:09.978Z,99496.03
2023-03-19T06:18:13.778Z,99499.44
2023-03-19T06:19:17.704Z,99503.97
2023-03-19T06:20:22.010Z,99503.19
2023-03-19T06:21:29.698Z,99504.13
2023-03-19T06:22:33.336Z,99496.41
2023-03-19T06:23:36.994Z,99503.03
2023-03-19T06:24:41.685Z,99502.25
2023-03-19T06:25:45.673Z,99495.34
2023-03-19T06:26:49.308Z,99502.56
2023-03-19T06:27:52.991Z,99500.31
2023-03-19T06:28:56.765Z,99506.09
2023-03-19T06:30:00.969Z,99511.09
2023-03-19T06:31:04.900Z,99502.56
2023-03-19T06:32:09.828Z,99503.59
2023-03-19T06:33:14.583Z,99509.94
2023-03-19T06:34:18.444Z,99497.34
2023-03-19T06:35:22.570Z,99503.63
2023-03-19T06:36:26.361Z,99507.97
2023-03-19T06:37:30.521Z,99503.50
2023-03-19T06:38:36.148Z,99506.19
2023-03-19T06:39:39.904Z,99503.88
2023-03-19T06:40:43.732Z,99510.25
2023-03-19T06:41:47.404Z,99498.00
2023-03-19T06:42:51.290Z,99499.31
2023-03-19T06:43:55.551Z,99499.69
2023-03-19T06:44:59.042Z,99505.50
2023-03-19T06:46:08.929Z,99506.06
2023-03-19T06:47:15.859Z,99511.59
2023-03-19T06:48:19.638Z,99516.66
2023-03-19T06:49:23.852Z,99510.09
2023-03-19T06:50:27.789Z,99509.09
2023-03-19T06:51:31.765Z,99512.13
2023-03-19T06:52:35.779Z,99505.28
2023-03-19T06:53:39.887Z,99504.88
2023-03-19T06:54:43.408Z,99515.53
2023-03-19T06:55:47.784Z,99507.22
2023-03-19T06:56:51.619Z,99513.56
2023-03-19T06:57:55.037Z,99511.00
2023-03-19T06:58:58.496Z,99519.97
2023-03-19T07:00:02.717Z,99506.66
2023-03-19T07:01:06.263Z,99511.44
2023-03-19T07:02:13.045Z,99504.13
2023-03-19T07:03:16.729Z,99504.97
2023-03-19T07:04:20.614Z,99498.78
2023-03-19T07:05:24.603Z,99505.13
2023-03-19T07:06:28.222Z,99496.56
2023-03-19T07:07:32.667Z,99495.56
2023-03-19T07:08:36.398Z,99499.91
2023-03-19T07:09:40.790Z,99493.94
2023-03-19T07:10:47.776Z,99492.78
2023-03-19T07:11:51.299Z,99491.34
2023-03-19T07:12:55.347Z,99487.63
2023-03-19T07:13:58.951Z,99492.09
2023-03-19T07:15:02.676Z,99489.28
2023-03-19T07:16:07.318Z,99492.16
2023-03-19T07:17:11.790Z,99487.03
2023-03-19T07:18:15.802Z,99490.81
2023-03-19T07:19:19.402Z,99481.78
2023-03-19T07:20:23.084Z,99484.38
2023-03-19T07:21:27.157Z,99479.63
2023-03-19T07:22:31.552Z,99481.84
2023-03-19T07:23:36.280Z,99477.16
2023-03-19T07:24:39.961Z,99478.69
2023-03-19T07:25:43.801Z,99478.00
2023-03-19T07:26:48.241Z,99487.41
2023-03-19T07:27:54.817Z,99484.00
2023-03-19T07:28:59.884Z,99481.84
2023-03-19T07:30:03.750Z,99485.75
2023-03-19T07:31:07.308Z,99485.56
2023-03-19T07:32:12.605Z,99485.22
2023-03-19T07:33:16.800Z,99478.22
2023-03-19T07:34:20.885Z,99480.31
2023-03-19T07:35:24.851Z,99469.44
2023-03-19T07:36:29.293Z,99474.50
2023-03-19T07:37:33.518Z,99477.75
2023-03-19T07:38:37.224Z,99477.59
2023-03-19T07:39:42.133Z,99471.69
2023-03-19T07:41:01.029Z,99468.53
2023-03-19T07:42:06.941Z,99466.72
2023-03-19T07:43:10.841Z,99475.16
2023-03-19T07:44:16.582Z,99462.25
2023-03-19T07:45:20.648Z,99469.16
2023-03-19T07:46:24.350Z,99477.94
2023-03-19T07:47:29.624Z,99470.75
2023-03-19T07:48:33.502Z,99477.19
2023-03-19T07:49:37.604Z,99466.31
2023-03-19T07:50:41.322Z,99473.81
2023-03-19T07:51:44.958Z,99470.19
2023-03-19T07:52:51.692Z,99477.88
2023-03-19T07:53:55.859Z,99475.31
2023-03-19T07:54:59.433Z,99463.38
2023-03-19T07:56:03.233Z,99465.56
2023-03-19T07:57:07.117Z,99468.03
2023-03-19T07:58:11.709Z,99468.28
2023-03-19T07:59:15.409Z,99458.28
2023-03-19T08:00:19.663Z,99460.53
2023-03-19T08:01:23.816Z,99453.16
2023-03-19T08:02:33.342Z,99459.38
2023-03-19T08:03:37.250Z,99447.72
2023-03-19T08:04:42.248Z,99456.34
2023-03-19T08:05:51.505Z,99459.09
2023-03-19T08:06:55.534Z,99449.94
2023-03-19T08:07:59.341Z,99452.75
2023-03-19T08:09:02.905Z,99450.56
2023-03-19T08:10:08.154Z,99451.47
2023-03-19T08:11:11.855Z,99456.16
2023-03-19T08:12:16.390Z,99455.47
2023-03-19T08:13:20.560Z,99449.22
2023-03-19T08:14:24.304Z,99446.03
2023-03-19T08:15:28.725Z,99442.28
2023-03-19T08:16:33.185Z,99445.22
2023-03-19T08:17:39.152Z,99444.34
2023-03-19T08:18:42.767Z,99432.41
2023-03-19T08:19:46.968Z,99434.75
2023-03-19T08:20:50.936Z,99434.66
2023-03-19T08:21:55.077Z,99432.84
2023-03-19T08:22:59.078Z,99437.16
2023-03-19T08:24:04.948Z,99444.75
2023-03-19T08:25:10.075Z,99436.25
2023-03-19T08:26:13.656Z,99437.88
2023-03-19T08:27:20.786Z,99430.44
2023-03-19T08:28:24.563Z,99438.53
2023-03-19T08:29:28.980Z,99439.91
2023-03-19T08:30:33.348Z,99439.09
2023-03-19T08:31:37.410Z,99434.50
2023-03-19T08:32:41.484Z,99434.09
2023-03-19T08:33:45.286Z,99437.00
2023-03-19T08:34:49.876Z,99423.56
2023-03-19T08:35:53.620Z,99424.19
2023-03-19T08:36:57.270Z,99428.97
2023-03-19T08:38:00.981Z,99421.25
2023-03-19T08:39:05.619Z,99427.75
2023-03-19T08:40:10.216Z,99414.34
2023-03-19T08:41:14.029Z,99424.75
2023-03-19T08:42:20.542Z,99418.56
2023-03-19T08:43:25.209Z,99421.44
2023-03-19T08:44:31.954Z,99423.00
2023-03-19T08:45:35.648Z,99423.78
2023-03-19T08:46:40.047Z,99425.25
2023-03-19T08:47:44.692Z,99411.69
2023-03-19T08:48:48.565Z,99418.69
2023-03-19T08:49:53.642Z,99417.22
2023-03-19T08:51:01.984Z,99420.00
2023-03-19T08:52:09.383Z,99413.94
2023-03-19T08:53:13.529Z,99421.97
2023-03-19T08:54:18.125Z,99424.25
2023-03-19T08:55:22.302Z,99419.41
2023-03-19T08:56:26.414Z,99426.41
2023-03-19T08:57:35.030Z,99427.22
2023-03-19T08:58:41.703Z,99414.78
2023-03-19T08:59:46.059Z,99424.28
2023-03-19T09:00:51.057Z,99427.47
2023-03-19T09:01:55.333Z,99428.97
2023-03-19T09:03:01.844Z,99434.31
2023-03-19T09:04:06.367Z,99433.03
2023-03-19T09:05:10.260Z,99432.59
2023-03-19T09:06:14.901Z,99429.69
2023-03-19T09:07:19.088Z,99433.25
2023-03-19T09:08:22.722Z,99429.34
2023-03-19T09:09:26.870Z,99425.50
2023-03-19T09:10:30.711Z,99433.50
2023-03-19T09:11:34.572Z,99443.81
2023-03-19T09:12:39.112Z,99434.38
2023-03-19T09:13:43.288Z,99439.47
2023-03-19T09:14:47.498Z,99437.44
2023-03-19T09:15:53.075Z,99440.19
2023-03-19T09:16:57.681Z,99438.31
2023-03-19T09:18:04.758Z,99435.13
2023-03-19T09:19:09.657Z,99438.53
2023-03-19T09:20:14.370Z,99435.75
2023-03-19T09:21:18.799Z,99432.59
2023-03-19T09:22:25.412Z,99432.53
2023-03-19T09:23:29.623Z,99426.50
2023-03-19T09:24:33.531Z,99428.56
2023-03-19T09:25:37.370Z,99431.41
2023-03-19T09:26:41.224Z,99425.63
2023-03-19T09:27:45.542Z,99427.56
2023-03-19T09:28:49.323Z,99431.94
2023-03-19T09:29:53.249Z,99430.63
2023-03-19T09:30:57.307Z,99418.75
2023-03-19T09:32:01.130Z,99428.25
2023-03-19T09:33:06.714Z,99424.72
2023-03-19T09:34:11.228Z,99430.34
2023-03-19T09:35:14.970Z,99430.19
2023-03-19T09:36:18.644Z,99437.22
2023-03-19T09:37:22.508Z,99428.78
2023-03-19T09:38:26.986Z,99437.16
2023-03-19T09:39:30.965Z,99426.13
2023-03-19T09:41:15.647Z,99423.28
2023-03-19T09:42:46.147Z,99421.06
2023-03-19T09:44:30.298Z,99413.66
2023-03-19T09:45:35.460Z,99417.00
2023-03-19T09:46:56.873Z,99405.75
2023-03-19T09:48:14.008Z,99409.69
2023-03-19T09:49:23.584Z,99406.88
2023-03-19T09:50:32.745Z,99410.47
2023-03-19T09:51:50.396Z,99415.38
2023-03-19T09:53:39.574Z,99420.16
2023-03-19T09:54:52.734Z,99415.41
2023-03-19T09:56:00.746Z,99417.47
2023-03-19T09:57:05.036Z,99413.91
2023-03-19T09:58:21.986Z,99407.81
2023-03-19T09:59:28.894Z,99408.44
2023-03-19T10:00:39.526Z,99411.31
2023-03-19T10:02:15.410Z,99408.75
2023-03-19T10:03:33.734Z,99408.88
2023-03-19T10:04:59.247Z,99404.69
2023-03-19T10:06:35.601Z,99404.97
2023-03-19T10:08:14.548Z,99408.66
2023-03-19T10:09:43.956Z,99401.03
2023-03-19T10:10:56.387Z,99414.09
2023-03-19T10:12:43.827Z,99408.97
2023-03-19T10:14:29.189Z,99405.44
2023-03-19T10:15:38.138Z,99405.91
2023-03-19T10:16:48.539Z,99411.72
2023-03-19T10:18:05.428Z,99405.41
2023-03-19T10:19:16.443Z,99406.88
2023-03-19T10:20:54.578Z,99405.56
2023-03-19T10:22:08.613Z,99399.94
2023-03-19T10:23:42.270Z,99399.25
2023-03-19T10:24:48.881Z,99395.72
2023-03-19T10:26:00.483Z,99396.41
2023-03-19T10:27:23.963Z,99391.72
2023-03-19T10:28:30.486Z,99392.16
2023-03-19T10:29:35.776Z,99389.91
2023-03-19T10:30:50.257Z,99383.53
2023-03-19T10:32:19.728Z,99384.63
2023-03-19T10:33:29.069Z,99380.94
2023-03-19T10:34:42.268Z,99387.47
2023-03-19T10:35:53.454Z,99375.78
2023-03-19T10:37:17.151Z,99379.56
2023-03-19T10:38:26.534Z,99383.31
2023-03-19T10:39:38.155Z,99376.13
2023-03-19T10:41:02.532Z,99380.66
2023-03-19T10:42:43.100Z,99371.44
2023-03-19T10:44:29.827Z,99373.88
2023-03-19T10:45:38.747Z,99374.31
2023-03-19T10:46:42.968Z,99358.06
2023-03-19T10:47:47.081Z,99368.84
2023-03-19T10:48:54.456Z,99361.53
2023-03-19T10:49:58.298Z,99356.78
2023-03-19T10:51:06.256Z,99359.09
2023-03-19T10:52:37.863Z,99362.38
2023-03-19T10:53:41.877Z,99361.69
2023-03-19T10:54:46.659Z,99354.66
2023-03-19T10:56:17.276Z,99350.03
2023-03-19T10:57:27.695Z,99347.47
2023-03-19T10:58:35.997Z,99355.28
2023-03-19T10:59:39.711Z,99352.19
2023-03-19T11:00:48.392Z,99345.16
2023-03-19T11:02:16.299Z,99342.56
2023-03-19T11:03:49.513Z,99346.81
2023-03-19T11:05:19.440Z,99341.16
2023-03-19T11:06:38.785Z,99347.09
2023-03-19T11:07:43.013Z,99348.63
2023-03-19T11:08:59.271Z,99341.31
2023-03-19T11:10:03.691Z,99343.16
2023-03-19T11:11:23.029Z,99342.16
2023-03-19T11:12:35.390Z,99338.47
2023-03-19T11:13:39.447Z,99335.69
2023-03-19T11:14:46.518Z,99337.81
2023-03-19T11:15:52.349Z,99333.72
2023-03-19T11:17:27.624Z,99339.25
2023-03-19T11:18:40.452Z,99333.19
2023-03-19T11:19:58.937Z,99338.69
2023-03-19T11:21:21.746Z,99330.50
2023-03-19T11:22:37.772Z,99335.41
2023-03-19T11:23:42.893Z,99335.00
2023-03-19T11:24:56.761Z,99333.00
2023-03-19T11:26:04.008Z,99327.63
2023-03-19T11:27:12.155Z,99329.06
2023-03-19T11:28:21.550Z,99329.31
2023-03-19T11:29:29.133Z,99329.16
2023-03-19T11:31:03.743Z,99328.88
2023-03-19T11:32:29.054Z,99323.41
2023-03-19T11:33:47.603Z,99323.25
2023-03-19T11:35:16.165Z,99309.31
2023-03-19T11:37:00.976Z,99309.44
2023-03-19T11:38:16.278Z,99310.28
2023-03-19T11:39:48.942Z,99305.47
2023-03-19T11:41:12.104Z,99314.91
2023-03-19T11:42:45.482Z,99310.94
2023-03-19T11:44:35.722Z,99307.69
2023-03-19T11:46:04.313Z,99305.16
2023-03-19T11:47:27.498Z,99302.59
2023-03-19T11:49:08.258Z,99294.69
2023-03-19T11:50:18.652Z,99290.75
2023-03-19T11:52:04.593Z,99292.22
2023-03-19T11:53:48.424Z,99290.38
2023-03-19T11:55:17.639Z,99283.03
2023-03-19T11:56:39.994Z,99277.81
2023-03-19T11:58:03.978Z,99276.81
2023-03-19T11:59:13.189Z,99279.06
2023-03-19T12:00:29.868Z,99273.22
2023-03-19T12:02:07.767Z,99277.91
2023-03-19T12:03:53.778Z,99283.53
2023-03-19T12:05:26.850Z,99283.31
2023-03-19T12:06:49.686Z,99292.22
2023-03-19T12:08:42.322Z,99281.78
2023-03-19T12:10:37.087Z,99280.94
2023-03-19T12:12:27.604Z,99274.75
2023-03-19T12:14:00.650Z,99275.88
2023-03-19T12:15:54.733Z,99279.53
2023-03-19T12:17:23.284Z,99282.63
2023-03-19T12:19:33.046Z,99277.84
2023-03-19T12:21:04.122Z,99277.47
2023-03-19T12:22:43.504Z,99270.41
2023-03-19T12:24:44.596Z,99277.47
2023-03-19T12:26:05.347Z,99270.28
2023-03-19T12:27:28.115Z,99270.75
2023-03-19T12:29:00.317Z,99268.34
2023-03-19T12:30:22.481Z,99265.81
2023-03-19T12:32:16.010Z,99259.88
2023-03-19T12:34:10.207Z,99255.03
2023-03-19T12:35:31.001Z,99248.56
2023-03-19T12:36:45.768Z,99250.78
2023-03-19T12:38:20.492Z,99244.13
2023-03-19T12:39:35.706Z,99234.66
2023-03-19T12:40:54.649Z,99246.25
2023-03-19T12:42:02.778Z,99236.91
2023-03-19T12:43:17.858Z,99235.22
2023-03-19T12:44:24.349Z,99230.41
2023-03-19T12:45:42.756Z,99236.91
2023-03-19T12:47:17.464Z,99237.44
2023-03-19T12:48:33.116Z,99234.91
2023-03-19T12:49:55.006Z,99234.41
2023-03-19T12:51:09.650Z,99226.13
2023-03-19T12:52:35.954Z,99227.97
2023-03-19T12:54:05.827Z,99231.25
2023-03-19T12:55:43.060Z,99225.75
2023-03-19T12:57:14.159Z,99224.75
2023-03-19T12:58:51.234Z,99215.38
2023-03-19T13:00:20.376Z,99218.53
2023-03-19T13:01:35.279Z,99216.94
2023-03-19T13:03:03.547Z,99222.31
2023-03-19T13:04:21.768Z,99221.00
2023-03-19T13:05:47.214Z,99216.03
2023-03-19T13:07:07.658Z,99216.03
2023-03-19T13:08:28.653Z,99215.53
2023-03-19T13:09:57.873Z,99213.09
2023-03-19T13:11:12.792Z,99211.00
2023-03-19T13:12:25.424Z,99213.38
2023-03-19T13:14:09.654Z,99215.19
2023-03-19T13:15:48.215Z,99218.44
2023-03-19T13:17:30.402Z,99216.44
2023-03-19T13:18:56.338Z,99204.16
2023-03-19T13:20:13.804Z,99204.63
2023-03-19T13:21:27.375Z,99208.00
2023-03-19T13:22:37.888Z,99202.94
2023-03-19T13:23:46.635Z,99204.91
2023-03-19T13:24:53.512Z,99203.63
2023-03-19T13:26:00.790Z,99202.34
2023-03-19T13:27:08.472Z,99203.19
2023-03-19T13:28:28.347Z,99195.97
2023-03-19T13:29:37.042Z,99200.19
2023-03-19T13:31:20.802Z,99203.03
2023-03-19T13:32:39.594Z,99195.75
2023-03-19T13:33:55.923Z,99201.38
2023-03-19T13:35:53.233Z,99204.78
2023-03-19T13:37:18.908Z,99197.84
2023-03-19T13:38:51.049Z,99198.25
2023-03-19T13:39:55.469Z,99197.56
2023-03-19T13:41:32.984Z,99191.06
2023-03-19T13:42:43.322Z,99199.78
2023-03-19T13:43:54.883Z,99192.59